Time;durP1;ratioP1;P1;durP2;ratioP2;P2;SDS_P1;SDS_P2;PMS_P1;PMS_P2;Temp;Humidity;BMP_temperature;BMP_pressure;BME280_temperature;BME280_humidity;BME280_pressure;Samples;Min_cycle;Max_cycle;Signal;HPM_P1;HPM_P2
2022/07/08 00:00:44;;;;;;;5.25;1.40;;;15.80;99.90;;;15.52;85.73;98238.69;4951205;28;20043;-37
2022/07/08 00:03:10;;;;;;;3.50;1.20;;;15.80;99.90;;;15.49;85.93;98239.72;4950514;28;20119;-37
2022/07/08 00:05:35;;;;;;;3.17;1.20;;;15.80;99.90;;;15.44;86.27;98241.69;4949203;28;20532;-38
2022/07/08 00:08:01;;;;;;;6.45;1.85;;;15.70;99.90;;;15.40;87.14;98240.97;4952321;28;20539;-37
2022/07/08 00:10:27;;;;;;;6.72;1.55;;;15.70;99.90;;;15.22;87.16;98224.03;4957429;28;20038;-38
2022/07/08 00:12:54;;;;;;;4.05;1.23;;;15.60;99.90;;;15.33;87.01;98241.31;4956807;28;20426;-37
2022/07/08 00:15:21;;;;;;;4.97;1.38;;;15.60;99.90;;;15.31;87.97;98251.13;4957658;28;20035;-38
2022/07/08 00:17:47;;;;;;;4.50;1.25;;;15.50;99.90;;;15.22;87.47;98247.06;4953965;28;20568;-37
2022/07/08 00:20:12;;;;;;;3.63;1.40;;;15.60;99.90;;;15.23;85.04;98257.63;4949408;28;20039;-37
2022/07/08 00:22:38;;;;;;;8.15;1.58;;;15.50;99.90;;;15.23;84.07;98262.06;4950990;28;20350;-38
2022/07/08 00:25:05;;;;;;;3.38;1.55;;;15.50;99.90;;;15.17;82.21;98260.53;4951105;28;20163;-37
2022/07/08 00:27:31;;;;;;;5.18;1.80;;;15.40;99.90;;;15.12;80.62;98262.53;4945646;28;20035;-38
2022/07/08 00:29:56;;;;;;;7.97;1.65;;;15.40;99.90;;;15.13;79.42;98264.25;4954977;28;20041;-38
2022/07/08 00:32:22;;;;;;;8.32;1.67;;;15.40;99.90;;;15.03;78.99;98254.94;4958687;28;20130;-38
2022/07/08 00:34:48;;;;;;;4.05;1.83;;;15.30;99.90;;;15.01;79.07;98270.09;4952571;28;20126;-37
2022/07/08 00:37:14;;;;;;;7.63;1.88;;;15.30;99.90;;;14.94;78.42;98279.22;4952794;28;20034;-38
2022/07/08 00:39:39;;;;;;;5.68;1.83;;;15.30;99.90;;;14.82;80.27;98267.28;4954817;28;20528;-37
2022/07/08 00:42:05;;;;;;;6.55;1.92;;;15.20;99.90;;;14.76;80.21;98275.53;4958121;28;20491;-37
2022/07/08 00:44:32;;;;;;;5.20;1.60;;;15.10;99.90;;;14.63;80.91;98278.66;4943465;28;20046;-38
2022/07/08 00:46:58;;;;;;;4.15;1.70;;;15.00;99.90;;;14.52;81.88;98278.19;4956551;28;20035;-38
2022/07/08 00:49:24;;;;;;;6.78;2.00;;;14.80;99.90;;;14.37;82.44;98290.25;4951497;28;20031;-38
2022/07/08 00:51:50;;;;;;;9.05;1.73;;;14.70;99.90;;;14.23;83.41;98288.13;4949569;28;20037;-38
2022/07/08 00:54:19;;;;;;;5.95;1.70;;;14.60;99.90;;;14.12;85.13;98285.88;4955094;28;20122;-38
2022/07/08 00:56:45;;;;;;;5.65;2.05;;;14.50;99.90;;;14.02;86.23;98283.63;4955812;28;20023;-38
2022/07/08 00:59:12;;;;;;;7.05;1.73;;;14.40;99.90;;;14.00;86.60;98290.75;4952180;28;20038;-38
2022/07/08 01:01:38;;;;;;;10.15;2.13;;;14.30;99.90;;;13.86;88.20;98284.16;4951103;28;20042;-38
2022/07/08 01:04:04;;;;;;;5.65;1.85;;;14.20;99.90;;;13.93;88.49;98296.28;4953245;28;20035;-38
2022/07/08 01:06:30;;;;;;;5.75;2.00;;;14.30;99.90;;;13.92;88.22;98293.69;4956656;28;20031;-38
2022/07/08 01:08:56;;;;;;;5.80;2.00;;;14.30;99.90;;;13.93;88.30;98285.69;4950374;28;20112;-38
2022/07/08 01:11:23;;;;;;;4.05;1.92;;;14.30;99.90;;;14.01;87.25;98292.50;4950434;28;20491;-38
2022/07/08 01:13:48;;;;;;;7.03;2.30;;;14.40;99.90;;;14.04;86.20;98290.59;4954805;28;20034;-38
2022/07/08 01:16:14;;;;;;;10.30;2.40;;;14.40;99.90;;;14.06;86.33;98285.22;4953353;28;20163;-38
2022/07/08 01:18:41;;;;;;;7.55;2.50;;;14.40;99.90;;;14.10;86.55;98293.03;4936859;28;20043;-38
2022/07/08 01:21:08;;;;;;;6.00;2.40;;;14.40;99.90;;;14.12;85.21;98287.63;4954350;28;20043;-38
2022/07/08 01:23:33;;;;;;;4.78;2.10;;;14.50;99.90;;;14.08;84.78;98286.88;4956938;28;20039;-38
2022/07/08 01:26:04;;;;;;;3.17;1.92;;;14.50;99.90;;;14.08;82.94;98294.00;4957383;28;20045;-38
2022/07/08 01:28:30;;;;;;;5.85;2.08;;;14.40;99.90;;;14.07;83.95;98297.59;4950754;28;20046;-38
2022/07/08 01:30:55;;;;;;;5.57;2.20;;;14.40;99.90;;;14.06;83.36;98299.34;4949951;28;20121;-38
2022/07/08 01:33:21;;;;;;;8.07;2.55;;;14.40;99.90;;;14.04;81.07;98303.84;4953930;28;20038;-38
2022/07/08 01:35:47;;;;;;;7.85;2.63;;;14.40;99.90;;;14.03;80.73;98306.56;4954973;28;20447;-38
2022/07/08 01:38:12;;;;;;;5.93;2.00;;;14.40;99.90;;;14.02;81.02;98302.19;4952432;28;20030;-38
2022/07/08 01:40:38;;;;;;;7.97;2.28;;;14.30;99.90;;;14.01;82.10;98311.91;4948636;28;20035;-38
2022/07/08 01:43:06;;;;;;;4.55;2.28;;;14.30;99.90;;;13.97;82.30;98302.34;4956531;28;20116;-38
2022/07/08 01:45:32;;;;;;;6.95;2.53;;;14.30;99.90;;;13.92;83.38;98304.28;4958785;28;20045;-38
2022/07/08 01:47:57;;;;;;;5.93;2.50;;;14.20;99.90;;;13.82;83.46;98300.22;4956167;28;20027;-38
2022/07/08 01:50:23;;;;;;;5.85;2.35;;;14.20;99.90;;;13.69;82.97;98306.00;4949198;28;20089;-38
2022/07/08 01:52:49;;;;;;;5.65;2.03;;;14.10;99.90;;;13.55;82.84;98309.13;4954572;28;20045;-38
2022/07/08 01:55:15;;;;;;;7.68;2.30;;;13.90;99.90;;;13.35;84.82;98303.59;4959848;28;20125;-38
2022/07/08 01:57:41;;;;;;;6.03;2.20;;;13.80;99.90;;;13.25;85.94;98308.34;4956848;28;20530;-38
2022/07/08 02:00:07;;;;;;;4.05;2.05;;;13.60;99.90;;;13.12;86.39;98310.53;4953608;28;20585;-38
2022/07/08 02:02:33;;;;;;;7.20;2.10;;;13.50;99.90;;;13.09;87.08;98315.06;4953506;28;20090;-38
2022/07/08 02:04:59;;;;;;;7.40;2.25;;;13.50;99.90;;;13.10;87.28;98322.94;4954257;28;20391;-38
2022/07/08 02:07:24;;;;;;;11.40;1.98;;;13.50;99.90;;;13.13;86.97;98317.53;4952026;28;20503;-38
2022/07/08 02:09:50;;;;;;;5.90;2.17;;;13.50;99.90;;;13.16;86.96;98324.53;4950752;28;20035;-38
2022/07/08 02:12:19;;;;;;;10.10;2.40;;;13.50;99.90;;;13.12;86.54;98323.75;4955895;28;20486;-38
2022/07/08 02:14:55;;;;;;;5.10;2.20;;;13.50;99.90;;;13.12;87.75;98315.81;4952016;28;20056;-38
2022/07/08 02:17:23;;;;;;;5.80;2.08;;;13.50;99.90;;;13.12;87.05;98322.91;4946729;28;20037;-38
2022/07/08 02:19:50;;;;;;;5.65;1.95;;;13.50;99.90;;;13.08;87.22;98318.59;4954258;28;20492;-38
2022/07/08 02:22:16;;;;;;;4.07;1.90;;;13.50;99.90;;;12.98;87.95;98300.38;4951900;28;20474;-38
2022/07/08 02:24:43;;;;;;;6.57;2.30;;;13.50;99.90;;;12.96;88.23;98312.78;4954109;28;20025;-38
2022/07/08 02:27:09;;;;;;;7.68;1.95;;;13.40;99.90;;;12.92;88.83;98324.41;4953129;28;20035;-38
2022/07/08 02:29:34;;;;;;;7.85;2.40;;;13.30;99.90;;;12.87;89.17;98320.19;4955766;28;20487;-38
2022/07/08 02:32:01;;;;;;;6.50;1.95;;;13.30;99.90;;;12.84;89.12;98317.63;4949634;28;20093;-38
2022/07/08 02:34:28;;;;;;;6.65;2.20;;;13.20;99.90;;;12.74;89.39;98312.63;4955321;28;20486;-38
2022/07/08 02:36:54;;;;;;;6.35;1.88;;;13.20;99.90;;;12.73;90.51;98318.81;4953795;28;20046;-38
2022/07/08 02:39:21;;;;;;;3.20;1.88;;;13.20;99.90;;;12.71;91.17;98322.44;4951175;28;20023;-38
2022/07/08 02:41:47;;;;;;;7.00;1.95;;;13.10;99.90;;;12.65;91.05;98326.13;4947745;28;20039;-38
2022/07/08 02:44:13;;;;;;;6.47;1.98;;;13.10;99.90;;;12.58;91.54;98321.94;4955334;28;20031;-38
2022/07/08 02:46:39;;;;;;;9.27;2.17;;;13.00;99.90;;;12.57;92.08;98322.84;4959808;28;20430;-38
2022/07/08 02:49:04;;;;;;;9.30;2.50;;;13.00;99.90;;;12.55;92.27;98329.97;4951672;28;20058;-38
2022/07/08 02:51:30;;;;;;;6.57;2.13;;;13.00;99.90;;;12.58;91.96;98338.69;4955309;28;20145;-38
2022/07/08 02:53:56;;;;;;;9.80;2.20;;;13.00;99.90;;;12.64;92.31;98344.72;4953225;28;20070;-38
2022/07/08 02:56:22;;;;;;;5.63;2.22;;;13.00;99.90;;;12.71;91.76;98349.75;4952932;28;20038;-38
2022/07/08 02:58:48;;;;;;;7.30;2.10;;;13.10;99.90;;;12.77;91.07;98352.19;4950873;28;20114;-38
2022/07/08 03:01:13;;;;;;;7.90;2.72;;;13.20;99.90;;;12.80;89.57;98352.13;4951281;28;20137;-38
2022/07/08 03:03:39;;;;;;;6.68;2.33;;;13.20;99.90;;;12.83;90.66;98337.06;4954869;28;20035;-38
2022/07/08 03:06:05;;;;;;;8.48;1.90;;;13.20;99.90;;;12.85;90.48;98351.09;4951885;28;20027;-38
2022/07/08 03:08:30;;;;;;;7.00;2.40;;;13.20;99.90;;;12.86;90.81;98353.72;4949687;28;20038;-38
2022/07/08 03:10:56;;;;;;;7.90;2.25;;;13.30;99.90;;;12.85;90.19;98351.09;4952752;28;20301;-38
2022/07/08 03:13:22;;;;;;;8.32;2.20;;;13.20;99.90;;;12.87;89.40;98362.53;4952779;28;20062;-38
2022/07/08 03:15:48;;;;;;;5.53;2.03;;;13.20;99.90;;;12.92;89.40;98363.22;4951431;28;20045;-38
2022/07/08 03:18:14;;;;;;;7.43;2.17;;;13.30;99.90;;;12.94;89.19;98366.72;4928752;28;20046;-38
2022/07/08 03:20:40;;;;;;;5.28;1.85;;;13.30;99.90;;;12.93;88.73;98372.91;4953420;28;20030;-38
2022/07/08 03:23:06;;;;;;;4.47;1.80;;;13.30;99.90;;;12.97;89.11;98382.50;4952592;28;20473;-38
2022/07/08 03:25:33;;;;;;;6.97;2.00;;;13.40;99.90;;;12.97;88.87;98386.03;4953052;28;20037;-38
2022/07/08 03:28:00;;;;;;;5.60;2.17;;;13.40;99.90;;;12.92;88.27;98385.31;4948995;28;21038;-38
2022/07/08 03:30:26;;;;;;;9.15;2.40;;;13.40;99.90;;;13.02;89.19;98385.03;4952789;28;20034;-38
2022/07/08 03:32:51;;;;;;;5.30;2.00;;;13.40;99.90;;;13.02;88.58;98388.53;4954054;28;20043;-38
2022/07/08 03:35:17;;;;;;;3.88;1.70;;;13.40;99.90;;;12.99;87.79;98383.31;4968547;23;20447;-37
2022/07/08 03:37:44;;;;;;;4.43;1.88;;;13.40;99.90;;;13.00;88.85;98390.34;4947462;28;20078;-37
2022/07/08 03:42:55;;;;;;;6.18;2.00;;;13.30;99.90;;;12.89;89.00;98395.97;4950381;28;20034;-40
2022/07/08 03:45:21;;;;;;;11.00;2.13;;;13.30;99.90;;;12.86;89.35;98398.72;4944102;28;20036;-40
2022/07/08 03:47:47;;;;;;;6.22;2.25;;;13.30;99.90;;;12.85;89.41;98407.59;4934725;28;20039;-39
2022/07/08 03:50:14;;;;;;;11.18;1.80;;;13.30;99.90;;;12.86;89.46;98408.44;4932883;28;20375;-40
2022/07/08 03:52:40;;;;;;;8.00;1.92;;;13.30;99.90;;;12.88;89.29;98414.56;4940932;28;20165;-40
2022/07/08 03:55:07;;;;;;;5.22;2.10;;;13.30;99.90;;;12.91;89.40;98417.13;4928749;28;20066;-40
2022/07/08 03:57:33;;;;;;;7.13;1.85;;;13.30;99.90;;;12.87;88.94;98410.19;4938823;28;20685;-40
2022/07/08 03:59:58;;;;;;;9.43;1.83;;;13.30;99.90;;;12.89;90.02;98413.66;4933251;28;20101;-39
2022/07/08 04:02:24;;;;;;;8.27;2.17;;;13.30;99.90;;;12.89;89.21;98417.16;4934005;28;20516;-40
2022/07/08 04:04:50;;;;;;;6.47;1.92;;;13.30;99.90;;;12.90;89.50;98420.66;4940711;28;20176;-39
2022/07/08 04:07:16;;;;;;;8.20;2.17;;;13.30;99.90;;;12.76;90.09;98397.28;4941723;28;20035;-40
2022/07/08 04:09:42;;;;;;;4.63;1.92;;;13.30;99.90;;;12.94;90.08;98424.97;4938656;28;20046;-39
2022/07/08 04:12:09;;;;;;;3.85;1.90;;;13.30;99.90;;;12.90;89.77;98413.63;4937163;28;20031;-40
2022/07/08 04:14:34;;;;;;;5.38;1.88;;;13.30;99.90;;;12.88;89.99;98415.41;4941855;28;20039;-40
2022/07/08 04:17:00;;;;;;;11.57;2.20;;;13.30;99.90;;;12.78;90.17;98422.78;4937891;28;20042;-39
2022/07/08 04:19:26;;;;;;;5.32;1.73;;;13.20;99.90;;;12.66;90.31;98415.19;4937499;28;20130;-40
2022/07/08 04:21:51;;;;;;;7.85;1.85;;;13.10;99.90;;;12.61;91.06;98422.38;4943443;28;20027;-39
2022/07/08 04:24:17;;;;;;;4.57;1.98;;;13.00;99.90;;;12.55;91.80;98428.72;4932363;28;20947;-39
2022/07/08 04:26:43;;;;;;;5.07;2.72;;;12.90;99.90;;;12.46;92.25;98426.34;4935423;28;20042;-40
2022/07/08 04:29:09;;;;;;;10.25;2.10;;;12.80;99.90;;;12.37;92.74;98424.81;4938079;28;20036;-40
2022/07/08 04:31:34;;;;;;;6.97;2.20;;;12.80;99.90;;;12.38;91.69;98429.22;4938020;28;20121;-40
2022/07/08 04:34:00;;;;;;;5.68;1.73;;;12.80;99.90;;;12.34;92.76;98424.03;4935432;28;20032;-40
2022/07/08 04:36:26;;;;;;;5.40;1.77;;;12.70;99.90;;;12.37;93.15;98429.25;4938655;28;20546;-40
2022/07/08 04:38:51;;;;;;;7.75;1.80;;;12.70;99.90;;;12.35;93.62;98425.78;4943102;28;20050;-40
2022/07/08 04:41:17;;;;;;;5.93;1.90;;;12.80;99.90;;;12.34;93.10;98424.91;4930281;28;20134;-40
2022/07/08 04:43:45;;;;;;;6.40;1.85;;;12.70;99.90;;;12.33;93.32;98417.03;4923533;28;20555;-40
2022/07/08 04:46:12;;;;;;;5.88;2.20;;;12.70;99.90;;;12.29;94.16;98415.38;4936238;28;20035;-40
2022/07/08 04:48:39;;;;;;;4.35;2.05;;;12.70;99.90;;;12.34;93.59;98426.69;4939894;28;20316;-40
2022/07/08 04:51:05;;;;;;;6.70;2.05;;;12.70;99.90;;;12.34;93.22;98424.03;4937330;28;20399;-40
2022/07/08 04:53:30;;;;;;;10.40;1.88;;;12.70;99.90;;;12.34;93.52;98421.41;4939385;28;20251;-40
2022/07/08 04:55:56;;;;;;;6.88;2.00;;;12.70;99.90;;;12.34;93.61;98424.91;4945005;28;20484;-38
2022/07/08 04:58:22;;;;;;;6.13;1.80;;;12.70;99.90;;;12.35;94.10;98421.38;4938797;28;20035;-41
2022/07/08 05:00:48;;;;;;;4.90;1.77;;;12.70;99.90;;;12.40;94.46;98432.69;4932343;28;20185;-38
2022/07/08 05:03:14;;;;;;;6.13;2.15;;;12.80;99.90;;;12.41;94.79;98431.75;4938408;28;20143;-38
2022/07/08 05:05:40;;;;;;;5.95;2.10;;;12.80;99.90;;;12.55;92.91;98436.66;4944507;28;20032;-38
2022/07/08 05:08:05;;;;;;;7.00;1.80;;;12.90;99.90;;;12.78;91.38;98443.94;4938035;28;20019;-38
2022/07/08 05:10:31;;;;;;;7.30;2.10;;;13.00;99.90;;;13.09;91.25;98436.88;4935821;28;20049;-38
2022/07/08 05:12:58;;;;;;;7.10;2.17;;;13.20;99.90;;;13.78;88.65;98439.13;4940646;28;20034;-38
2022/07/08 05:15:24;;;;;;;7.13;1.60;;;13.60;99.90;;;15.24;82.61;98433.88;4925908;28;20035;-38
2022/07/08 05:17:52;;;;;;;4.47;1.70;;;14.20;99.90;;;16.70;74.85;98424.22;4932185;28;20035;-38
2022/07/08 05:20:18;;;;;;;5.63;1.50;;;15.20;99.90;;;17.91;64.88;98438.97;4935899;28;20069;-38
2022/07/08 05:22:44;;;;;;;8.70;1.75;;;16.10;99.90;;;18.96;59.61;98442.38;4940823;28;20296;-38
2022/07/08 05:25:10;;;;;;;3.72;1.55;;;17.00;99.60;;;19.64;55.24;98443.97;4943210;28;20031;-39
2022/07/08 05:27:37;;;;;;;4.63;1.30;;;17.70;97.50;;;20.24;52.74;98445.00;4942881;28;20035;-39
2022/07/08 05:30:08;;;;;;;6.53;1.38;;;18.30;96.30;;;20.72;50.92;98443.84;4942366;28;20042;-39
2022/07/08 05:32:35;;;;;;;5.43;1.42;;;18.70;95.30;;;21.07;50.24;98442.63;4939076;28;20042;-39
2022/07/08 05:35:03;;;;;;;5.70;1.55;;;19.00;94.90;;;21.05;48.75;98441.84;4901294;28;1049493;-39
2022/07/08 05:37:29;;;;;;;4.57;1.63;;;19.20;94.00;;;20.85;50.13;98443.94;4927614;28;20039;-39
2022/07/08 05:39:56;;;;;;;7.18;1.58;;;19.20;94.10;;;20.00;52.16;98449.03;4941644;28;20083;-39
2022/07/08 05:42:21;;;;;;;4.75;1.25;;;18.90;94.40;;;19.21;53.73;98460.63;4937406;28;20023;-39
2022/07/08 05:44:47;;;;;;;6.60;1.70;;;18.40;94.60;;;18.55;57.04;98455.25;4940067;28;20554;-39
2022/07/08 05:47:13;;;;;;;3.92;1.50;;;18.00;95.20;;;17.97;60.02;98460.00;4940923;28;20030;-39
2022/07/08 05:49:43;;;;;;;5.30;1.60;;;17.70;96.00;;;17.51;59.41;98467.53;4944014;28;20038;-39
2022/07/08 05:52:09;;;;;;;5.03;1.65;;;17.30;95.60;;;16.99;64.00;98468.19;4941555;28;20034;-39
2022/07/08 05:54:34;;;;;;;6.85;1.73;;;17.00;96.30;;;16.80;65.44;98473.47;4944937;28;20039;-39
2022/07/08 05:57:00;;;;;;;4.78;1.50;;;16.80;97.20;;;16.62;66.23;98467.19;4941928;28;20035;-39
2022/07/08 05:59:27;;;;;;;4.15;1.63;;;16.60;97.40;;;16.55;66.44;98471.06;4937853;28;20090;-39
2022/07/08 06:01:54;;;;;;;3.83;1.50;;;16.50;97.50;;;16.43;64.70;98483.09;4940586;28;20495;-39
2022/07/08 06:04:19;;;;;;;7.03;1.70;;;16.40;97.00;;;16.27;65.22;98468.72;4939376;28;20614;-39
2022/07/08 06:06:45;;;;;;;6.70;1.77;;;16.40;96.90;;;16.10;65.62;98474.78;4942357;28;20031;-39
2022/07/08 06:09:11;;;;;;;6.13;1.40;;;16.30;96.80;;;15.98;65.94;98473.47;4942473;28;20173;-39
2022/07/08 06:11:37;;;;;;;4.85;1.75;;;16.20;97.00;;;16.07;66.85;98488.19;4938062;28;20035;-39
2022/07/08 06:14:03;;;;;;;4.10;1.35;;;16.20;97.40;;;16.01;68.42;98476.88;4941979;28;20039;-39
2022/07/08 06:16:29;;;;;;;3.83;1.27;;;16.20;97.70;;;16.14;68.38;98481.69;4941354;28;20062;-40
2022/07/08 06:18:54;;;;;;;3.33;1.33;;;16.30;97.90;;;16.36;67.42;98479.81;4937837;28;20031;-39
2022/07/08 06:21:20;;;;;;;8.70;1.50;;;16.40;97.70;;;16.51;64.70;98477.41;4941517;28;20102;-39
2022/07/08 06:23:46;;;;;;;3.00;1.30;;;16.60;97.10;;;16.69;64.63;98479.28;4944204;28;20371;-39
2022/07/08 06:26:12;;;;;;;6.07;1.30;;;16.70;96.80;;;16.78;63.46;98484.19;4937726;28;20031;-39
2022/07/08 06:28:37;;;;;;;4.07;1.00;;;16.90;96.40;;;16.87;62.43;98488.28;4946706;28;20034;-39
2022/07/08 06:31:03;;;;;;;5.20;1.20;;;17.00;95.80;;;16.98;60.68;98488.66;4940511;29;20747;-39
2022/07/08 06:33:29;;;;;;;2.38;1.25;;;17.10;95.10;;;17.14;60.73;98482.63;4935882;28;20031;-39
2022/07/08 06:35:55;;;;;;;4.53;1.23;;;17.30;95.30;;;17.32;59.20;98483.56;4938610;28;20038;-39
2022/07/08 06:38:20;;;;;;;6.28;1.50;;;17.50;94.80;;;17.54;56.30;98494.06;4943151;28;20038;-38
2022/07/08 06:40:46;;;;;;;2.78;1.10;;;17.70;93.80;;;17.64;56.29;98484.72;4945099;28;20154;-37
2022/07/08 06:43:12;;;;;;;3.38;1.17;;;17.90;93.60;;;17.84;55.89;98497.06;4940417;28;20032;-36
2022/07/08 06:45:37;;;;;;;7.85;1.67;;;18.00;93.40;;;17.89;56.70;98500.41;4939894;28;20368;-38
2022/07/08 06:48:04;;;;;;;4.28;1.30;;;18.10;93.50;;;17.95;54.58;98498.38;4942377;28;20111;-38
2022/07/08 06:50:30;;;;;;;4.63;1.48;;;18.10;92.80;;;17.84;56.36;98499.75;4940098;28;20119;-38
2022/07/08 06:52:56;;;;;;;3.83;1.17;;;18.00;93.00;;;17.69;56.42;98501.34;4943187;28;20110;-38
2022/07/08 06:55:22;;;;;;;3.58;1.05;;;17.90;93.20;;;17.51;55.38;98505.75;4940186;28;20523;-38
2022/07/08 06:57:48;;;;;;;7.25;1.20;;;17.80;93.20;;;17.36;51.82;98511.81;4944963;28;20027;-38
2022/07/08 07:00:15;;;;;;;7.70;1.48;;;17.70;91.00;;;17.44;53.15;98500.78;4941419;28;20031;-38
2022/07/08 07:02:41;;;;;;;3.33;1.10;;;17.70;91.40;;;17.74;51.83;98506.44;4937678;28;20031;-38
2022/07/08 07:05:08;;;;;;;4.55;1.52;;;18.00;91.10;;;17.98;52.58;98508.88;4937802;28;20058;-38
2022/07/08 07:07:34;;;;;;;5.40;1.05;;;18.20;91.30;;;18.10;50.17;98514.47;4940172;28;20038;-38
2022/07/08 07:10:00;;;;;;;6.72;1.70;;;18.30;90.20;;;18.22;51.83;98502.34;4945700;28;20488;-38
2022/07/08 07:12:25;;;;;;;2.65;0.90;;;18.50;90.80;;;18.51;51.64;98508.00;4940191;28;20319;-38
2022/07/08 07:14:51;;;;;;;4.05;1.33;;;18.70;91.30;;;18.60;48.78;98520.00;4942488;28;20035;-38
2022/07/08 07:17:21;;;;;;;3.05;1.30;;;18.80;89.20;;;18.60;48.95;98509.31;4940637;28;20035;-38
2022/07/08 07:19:48;;;;;;;4.45;1.13;;;18.90;88.60;;;18.47;50.88;98511.78;4937618;28;20098;-38
2022/07/08 07:22:15;;;;;;;2.60;0.95;;;18.80;89.50;;;18.55;50.69;98517.56;4944169;28;20102;-38
2022/07/08 07:24:41;;;;;;;2.42;1.20;;;18.70;90.20;;;18.28;50.61;98519.84;4944963;28;20030;-38
2022/07/08 07:27:07;;;;;;;5.13;1.30;;;18.60;90.00;;;18.32;51.18;98526.75;4944928;28;20027;-37
2022/07/08 07:29:33;;;;;;;6.50;1.38;;;18.50;90.50;;;18.48;51.36;98518.81;4940643;28;20030;-39
2022/07/08 07:31:59;;;;;;;5.43;1.10;;;18.70;90.80;;;18.78;49.44;98515.53;4941052;28;20034;-39
2022/07/08 07:34:26;;;;;;;4.32;1.30;;;19.00;89.60;;;18.85;46.91;98523.16;4943874;28;20439;-39
2022/07/08 07:36:51;;;;;;;2.63;1.10;;;19.20;85.70;;;18.88;47.47;98522.16;4936433;28;20066;-39
2022/07/08 07:39:17;;;;;;;7.53;1.50;;;19.20;85.60;;;18.54;46.63;98528.31;4938472;28;20026;-39
2022/07/08 07:41:43;;;;;;;2.88;0.98;;;19.00;84.80;;;18.49;47.68;98534.78;4940843;28;20078;-39
2022/07/08 07:44:08;;;;;;;5.22;1.25;;;18.70;86.20;;;18.39;48.31;98533.50;4940204;28;20034;-39
2022/07/08 07:46:34;;;;;;;6.85;1.25;;;18.70;87.20;;;18.35;49.29;98531.09;4936257;28;20043;-39
2022/07/08 07:49:01;;;;;;;4.03;1.23;;;18.70;87.60;;;18.24;48.72;98534.31;4934545;28;20301;-39
2022/07/08 07:51:27;;;;;;;5.38;1.48;;;18.60;87.00;;;18.23;49.74;98530.78;4939621;28;20049;-39
2022/07/08 07:53:52;;;;;;;3.67;1.15;;;18.50;88.40;;;18.18;50.10;98531.91;4934995;28;20231;-39
2022/07/08 07:56:18;;;;;;;4.57;1.10;;;18.40;88.90;;;18.14;50.94;98528.53;4938910;28;20028;-38
2022/07/08 07:58:44;;;;;;;3.53;1.63;;;18.40;89.50;;;18.00;49.59;98528.34;4939188;28;20166;-40
2022/07/08 08:01:09;;;;;;;4.88;1.30;;;18.30;88.50;;;17.88;51.06;98535.19;4933970;28;20035;-40
2022/07/08 08:03:35;;;;;;;4.00;1.27;;;18.30;88.50;;;17.67;48.87;98531.69;4932759;28;20114;-39
2022/07/08 08:06:03;;;;;;;3.45;0.90;;;18.10;86.50;;;17.66;50.20;98528.16;4935592;28;20031;-39
2022/07/08 08:08:31;;;;;;;2.60;0.90;;;18.00;87.90;;;17.70;50.75;98531.56;4933904;28;20095;-39
2022/07/08 08:10:58;;;;;;;5.43;1.10;;;18.00;88.90;;;17.86;51.53;98537.91;4938477;28;20495;-39
2022/07/08 08:13:24;;;;;;;3.95;1.15;;;18.10;90.20;;;18.11;51.31;98534.91;4943498;28;20039;-39
2022/07/08 08:15:50;;;;;;;3.45;0.82;;;18.40;90.00;;;18.63;49.63;98530.56;4943719;28;20042;-39
2022/07/08 08:18:16;;;;;;;6.03;1.00;;;18.90;89.00;;;19.25;48.04;98526.34;4942482;28;20132;-39
2022/07/08 08:20:42;;;;;;;5.38;1.40;;;19.50;87.10;;;19.58;45.85;98536.16;4942375;28;20215;-40
2022/07/08 08:23:09;;;;;;;5.78;1.30;;;20.10;83.40;;;19.83;44.40;98533.00;4943181;28;20470;-41
2022/07/08 08:25:35;;;;;;;7.93;1.23;;;20.40;80.90;;;19.95;43.79;98535.94;4932478;28;20038;-41
2022/07/08 08:28:02;;;;;;;3.95;1.20;;;20.40;80.30;;;19.82;43.41;98541.97;4933410;28;20023;-41
2022/07/08 08:30:28;;;;;;;3.63;1.30;;;20.30;79.80;;;19.71;45.16;98544.38;4931847;28;20344;-41
2022/07/08 08:32:53;;;;;;;3.95;1.10;;;20.20;81.60;;;19.85;45.49;98540.97;4932382;28;20066;-39
2022/07/08 08:35:19;;;;;;;5.30;1.33;;;20.10;81.80;;;19.90;44.45;98535.31;4925899;28;20835;-42
2022/07/08 08:37:45;;;;;;;3.42;1.00;;;20.10;81.40;;;20.11;45.17;98535.91;4939081;29;20464;-41
2022/07/08 08:40:12;;;;;;;2.65;0.80;;;20.40;82.50;;;20.34;44.04;98514.00;4930165;28;20407;-41
2022/07/08 08:42:41;;;;;;;3.60;0.80;;;20.60;81.90;;;20.11;43.32;98531.41;4930722;28;20131;-40
2022/07/08 08:45:09;;;;;;;3.25;1.17;;;20.50;79.30;;;20.08;43.23;98528.94;4923120;28;20304;-42
2022/07/08 08:47:36;;;;;;;4.03;1.20;;;20.40;78.30;;;20.08;42.52;98528.94;4927730;28;20114;-42
2022/07/08 08:52:54;;;;;;;2.80;0.95;;;20.30;80.00;;;19.94;46.83;98519.00;4940729;28;20046;-42
2022/07/08 08:55:31;;;;;;;5.47;1.13;;;20.10;82.70;;;20.19;46.37;98525.63;4938184;28;20529;-42
2022/07/08 08:58:03;;;;;;;5.10;1.20;;;20.30;83.70;;;20.02;44.17;98527.44;4931611;28;20035;-42
2022/07/08 09:00:31;;;;;;;4.90;1.60;;;20.20;81.10;;;19.72;43.76;98534.53;4939060;28;20039;-41
2022/07/08 09:02:59;;;;;;;3.10;0.90;;;20.10;78.90;;;19.61;45.63;98524.41;4939261;28;20082;-42
2022/07/08 09:05:26;;;;;;;3.88;1.25;;;19.80;81.10;;;19.52;45.85;98533.81;4934218;28;20039;-42
2022/07/08 09:07:53;;;;;;;2.70;0.90;;;19.60;82.20;;;19.48;44.83;98529.59;4939880;29;20035;-41
2022/07/08 09:10:19;;;;;;;3.15;0.85;;;19.60;81.30;;;19.41;45.88;98512.16;4937248;28;20043;-43
2022/07/08 09:13:03;;;;;;;4.30;1.30;;;19.60;81.90;;;19.29;44.23;98524.41;4938398;29;20039;-42
2022/07/08 09:15:35;;;;;;;5.47;1.35;;;19.60;79.60;;;19.10;46.02;98521.00;4933420;28;20038;-42
2022/07/08 09:18:04;;;;;;;3.35;1.25;;;19.40;81.00;;;19.10;48.87;98516.50;4937238;28;20035;-42
2022/07/08 09:20:47;;;;;;;7.85;1.02;;;19.40;85.10;;;18.91;45.58;98521.09;4937599;28;20031;-42
2022/07/08 09:23:23;;;;;;;4.32;1.33;;;19.30;80.40;;;18.66;45.00;98509.00;4937510;29;20145;-42
2022/07/08 09:25:54;;;;;;;2.42;0.82;;;19.00;79.60;;;18.56;46.71;98519.31;4945951;28;20035;-42
2022/07/08 09:28:41;;;;;;;2.87;1.20;;;18.90;81.20;;;18.46;47.69;98507.34;4937220;28;20035;-44
2022/07/08 09:31:15;;;;;;;3.78;1.08;;;18.80;82.40;;;18.61;48.04;98514.59;4936128;28;20313;-42
2022/07/08 09:33:44;;;;;;;3.13;1.20;;;18.80;82.30;;;18.63;46.59;98517.19;4935258;28;20664;-42
2022/07/08 09:38:46;;;;;;;6.57;1.30;;;19.00;83.80;;;18.92;47.36;98521.03;4973643;28;20055;-47
2022/07/08 09:41:13;;;;;;;7.45;1.67;;;19.20;83.30;;;19.07;45.96;98516.66;4974570;28;20031;-45
2022/07/08 09:43:48;;;;;;;4.00;1.08;;;19.30;81.70;;;19.03;46.63;98515.97;4974652;28;20038;-46
2022/07/08 09:46:14;;;;;;;5.63;1.55;;;19.40;81.90;;;18.98;45.33;98517.16;4975167;28;20060;-45
2022/07/08 09:48:39;;;;;;;4.60;1.17;;;19.30;79.80;;;19.06;45.95;98520.31;4958411;28;20184;-44
2022/07/08 09:51:07;;;;;;;4.30;1.20;;;19.40;80.70;;;19.05;46.66;98524.75;4961571;28;20479;-47
2022/07/08 09:53:35;;;;;;;2.40;0.98;;;19.40;82.20;;;19.23;47.22;98525.56;4952708;28;20110;-44
2022/07/08 09:56:02;;;;;;;3.92;1.20;;;19.50;82.60;;;19.41;47.69;98525.53;4954287;28;20039;-44
2022/07/08 09:58:32;;;;;;;4.60;1.50;;;19.70;83.10;;;19.52;45.71;98514.22;4949270;28;20042;-44
2022/07/08 10:01:00;;;;;;;5.80;1.40;;;19.90;81.90;;;19.46;45.89;98524.31;4955240;28;20034;-45
2022/07/08 10:03:27;;;;;;;6.30;1.25;;;19.90;80.40;;;19.33;46.21;98519.75;4950653;28;20057;-47
2022/07/08 10:05:54;;;;;;;6.15;1.38;;;19.70;80.70;;;19.23;47.24;98522.91;4949422;28;20042;-44
2022/07/08 10:08:21;;;;;;;5.18;1.00;;;19.60;83.20;;;19.06;46.37;98525.66;4951196;28;20111;-44
2022/07/08 10:10:50;;;;;;;1.73;1.00;;;19.40;82.10;;;18.99;47.20;98525.09;4953222;28;20034;-47
2022/07/08 10:13:21;;;;;;;4.88;1.30;;;19.20;82.50;;;18.97;47.65;98518.09;4952335;28;20065;-43
2022/07/08 10:15:49;;;;;;;3.80;1.20;;;19.20;83.00;;;19.00;46.15;98513.44;4951338;28;20031;-45
2022/07/08 10:18:44;;;;;;;3.15;1.27;;;19.30;82.90;;;19.15;46.81;98521.59;4936491;28;20058;-48
2022/07/08 10:21:13;;;;;;;2.25;0.90;;;19.40;81.60;;;19.29;46.58;98515.50;4926070;28;20042;-48
2022/07/08 10:23:45;;;;;;;7.22;1.40;;;19.50;82.50;;;19.38;46.70;98514.97;4925664;28;20126;-47